Time;durP1;ratioP1;P1;durP2;ratioP2;P2;SDS_P1;SDS_P2;PMS_P1;PMS_P2;Temp;Humidity;BMP_temperature;BMP_pressure;BME280_temperature;BME280_humidity;BME280_pressure;Samples;Min_cycle;Max_cycle;Signal;HPM_P1;HPM_P2
2023/09/27 00:00:20;;;;;;;12.38;9.63;;;;;;;;;;6310929;22;20042;-80
2023/09/27 00:02:46;;;;;;;13.18;10.73;;;;;;;;;;6311911;22;20015;-80
2023/09/27 00:05:14;;;;;;;13.52;10.75;;;;;;;;;;6311649;22;20037;-80
2023/09/27 00:07:41;;;;;;;13.57;10.82;;;;;;;;;;6312595;22;20917;-80
2023/09/27 00:10:11;;;;;;;13.20;10.38;;;;;;;;;;6311737;22;20126;-80
2023/09/27 00:12:37;;;;;;;13.18;10.25;;;;;;;;;;6309714;22;20021;-80
2023/09/27 00:15:03;;;;;;;12.25;10.88;;;;;;;;;;6280035;22;20018;-79
2023/09/27 00:17:30;;;;;;;13.57;10.73;;;;;;;;;;6280767;22;20168;-79
2023/09/27 00:19:56;;;;;;;12.50;10.25;;;;;;;;;;6255009;22;20679;-79
2023/09/27 00:22:22;;;;;;;13.98;11.60;;;;;;;;;;6280560;22;20293;-79
2023/09/27 00:24:48;;;;;;;14.82;10.80;;;;;;;;;;6280679;22;20015;-79
2023/09/27 00:27:15;;;;;;;14.82;11.55;;;;;;;;;;6279864;22;20043;-79
2023/09/27 00:29:41;;;;;;;14.20;12.38;;;;;;;;;;6279913;22;20019;-79
2023/09/27 00:32:08;;;;;;;13.57;10.77;;;;;;;;;;6279326;22;20015;-79
2023/09/27 00:34:34;;;;;;;14.88;12.23;;;;;;;;;;6280113;22;20082;-79
2023/09/27 00:37:00;;;;;;;15.38;12.25;;;;;;;;;;6280138;22;20149;-79
2023/09/27 00:39:26;;;;;;;13.48;11.45;;;;;;;;;;6280492;22;20015;-79
2023/09/27 00:41:52;;;;;;;15.73;12.10;;;;;;;;;;6280092;22;20017;-79
2023/09/27 00:44:19;;;;;;;14.43;11.43;;;;;;;;;;6307384;22;20011;-79
2023/09/27 00:46:45;;;;;;;16.02;12.10;;;;;;;;;;6280125;22;20400;-79
2023/09/27 00:49:11;;;;;;;15.10;12.38;;;;;;;;;;6279573;22;20436;-79
2023/09/27 00:51:38;;;;;;;16.80;12.43;;;;;;;;;;6307819;22;20011;-80
2023/09/27 00:54:04;;;;;;;15.48;11.90;;;;;;;;;;6280495;22;20007;-79
2023/09/27 00:56:31;;;;;;;15.18;11.27;;;;;;;;;;6308230;22;20015;-79
2023/09/27 00:58:58;;;;;;;15.85;11.80;;;;;;;;;;6280671;22;20023;-79
2023/09/27 01:01:26;;;;;;;14.60;11.48;;;;;;;;;;6280857;22;20016;-79
2023/09/27 01:03:53;;;;;;;14.65;11.52;;;;;;;;;;6307255;22;20019;-79
2023/09/27 01:06:19;;;;;;;14.75;12.02;;;;;;;;;;6279736;22;20015;-79
2023/09/27 01:08:45;;;;;;;14.73;11.80;;;;;;;;;;6281059;22;20378;-79
2023/09/27 01:11:11;;;;;;;13.52;11.38;;;;;;;;;;6307159;22;20019;-79
2023/09/27 01:13:38;;;;;;;15.15;12.02;;;;;;;;;;6308244;22;20011;-79
2023/09/27 01:16:04;;;;;;;14.80;12.23;;;;;;;;;;6280588;22;20015;-79
2023/09/27 01:18:30;;;;;;;15.90;12.25;;;;;;;;;;6308143;22;20023;-79
2023/09/27 01:20:56;;;;;;;17.55;13.27;;;;;;;;;;6309116;22;20015;-79
2023/09/27 01:23:22;;;;;;;15.50;12.48;;;;;;;;;;6282068;22;20047;-79
2023/09/27 01:26:00;;;;;;;15.15;13.00;;;;;;;;;;6309120;22;20011;-79
2023/09/27 01:28:27;;;;;;;17.98;12.52;;;;;;;;;;6309251;22;20148;-79
2023/09/27 01:30:53;;;;;;;17.77;12.82;;;;;;;;;;6308447;22;20015;-79
2023/09/27 01:33:19;;;;;;;16.48;12.63;;;;;;;;;;6282345;22;20065;-79
2023/09/27 01:35:45;;;;;;;15.75;11.50;;;;;;;;;;6282562;22;20015;-79
2023/09/27 01:38:12;;;;;;;16.45;13.38;;;;;;;;;;6281428;22;20019;-79
2023/09/27 01:40:42;;;;;;;15.63;12.85;;;;;;;;;;6282027;22;20019;-79
2023/09/27 01:43:08;;;;;;;15.70;12.18;;;;;;;;;;6282297;22;20019;-79
2023/09/27 01:45:35;;;;;;;16.70;12.60;;;;;;;;;;6309993;22;20007;-79
2023/09/27 01:48:01;;;;;;;16.42;13.52;;;;;;;;;;6308986;22;20068;-79
2023/09/27 01:50:28;;;;;;;17.67;13.77;;;;;;;;;;6309110;22;20382;-79
2023/09/27 01:52:55;;;;;;;15.13;12.57;;;;;;;;;;6281888;22;20039;-79
2023/09/27 01:55:22;;;;;;;17.02;13.13;;;;;;;;;;6281792;22;20061;-79
2023/09/27 01:57:48;;;;;;;18.85;14.23;;;;;;;;;;6309905;22;20019;-79
2023/09/27 02:00:15;;;;;;;18.55;13.98;;;;;;;;;;6308705;22;21011;-79
2023/09/27 02:02:41;;;;;;;15.75;12.38;;;;;;;;;;6281850;22;20064;-79
2023/09/27 02:05:08;;;;;;;17.33;13.70;;;;;;;;;;6309413;22;20015;-78
2023/09/27 02:07:34;;;;;;;17.17;12.65;;;;;;;;;;6309518;22;20511;-79
2023/09/27 02:10:00;;;;;;;16.00;13.25;;;;;;;;;;6309172;22;20069;-79
2023/09/27 02:12:26;;;;;;;19.63;13.35;;;;;;;;;;6310260;22;20023;-79
2023/09/27 02:14:51;;;;;;;19.20;13.30;;;;;;;;;;6281547;22;20462;-79
2023/09/27 02:17:17;;;;;;;18.40;14.20;;;;;;;;;;6282060;22;20019;-79
2023/09/27 02:19:43;;;;;;;17.25;13.02;;;;;;;;;;6282280;22;20463;-79
2023/09/27 02:22:09;;;;;;;19.23;13.45;;;;;;;;;;6308783;22;20019;-79
2023/09/27 02:24:36;;;;;;;15.07;13.15;;;;;;;;;;6280870;22;20065;-79
2023/09/27 02:27:02;;;;;;;14.50;11.88;;;;;;;;;;6280532;22;20401;-79
2023/09/27 02:29:28;;;;;;;14.73;13.13;;;;;;;;;;6282449;22;20270;-79
2023/09/27 02:31:55;;;;;;;15.35;12.75;;;;;;;;;;6280804;22;20062;-79
2023/09/27 02:34:21;;;;;;;14.48;11.88;;;;;;;;;;6281281;22;20039;-79
2023/09/27 02:36:47;;;;;;;18.38;14.27;;;;;;;;;;6309543;22;20148;-79
2023/09/27 02:39:13;;;;;;;18.63;13.15;;;;;;;;;;6307950;22;20327;-79
2023/09/27 02:41:39;;;;;;;15.77;11.98;;;;;;;;;;6309973;22;20015;-79
2023/09/27 02:44:05;;;;;;;15.75;13.02;;;;;;;;;;6280798;22;20047;-79
2023/09/27 02:46:32;;;;;;;16.95;13.05;;;;;;;;;;6308651;22;20025;-79
2023/09/27 02:48:58;;;;;;;18.00;12.48;;;;;;;;;;6308939;22;20073;-79
2023/09/27 02:51:24;;;;;;;16.17;13.00;;;;;;;;;;6281079;22;20086;-79
2023/09/27 02:53:50;;;;;;;16.13;12.50;;;;;;;;;;6280750;22;20015;-79
2023/09/27 02:56:17;;;;;;;15.65;12.68;;;;;;;;;;6279992;22;20019;-79
2023/09/27 02:58:44;;;;;;;18.02;13.45;;;;;;;;;;6280729;22;20011;-79
2023/09/27 03:01:11;;;;;;;16.80;13.43;;;;;;;;;;6280843;22;20090;-79
2023/09/27 03:03:37;;;;;;;17.50;13.98;;;;;;;;;;6307969;22;20015;-79
2023/09/27 03:06:05;;;;;;;16.98;13.65;;;;;;;;;;6307992;22;20305;-79
2023/09/27 03:08:31;;;;;;;15.38;12.80;;;;;;;;;;6306979;22;20011;-79
2023/09/27 03:10:57;;;;;;;16.55;11.95;;;;;;;;;;6279910;22;20445;-79
2023/09/27 03:13:23;;;;;;;17.60;12.70;;;;;;;;;;6308179;22;20021;-79
2023/09/27 03:15:56;;;;;;;16.88;13.30;;;;;;;;;;6308173;22;20045;-79
2023/09/27 03:18:22;;;;;;;17.23;12.90;;;;;;;;;;6309133;22;20428;-79
2023/09/27 03:20:51;;;;;;;19.88;13.75;;;;;;;;;;6308216;22;20070;-79
2023/09/27 03:23:17;;;;;;;18.38;12.77;;;;;;;;;;6307992;22;20014;-79
2023/09/27 03:25:46;;;;;;;18.05;14.43;;;;;;;;;;6308425;22;20035;-79
2023/09/27 03:28:12;;;;;;;20.17;15.10;;;;;;;;;;6307838;22;20301;-79
2023/09/27 03:30:39;;;;;;;19.33;13.90;;;;;;;;;;6280431;22;20026;-79
2023/09/27 03:33:05;;;;;;;21.83;15.18;;;;;;;;;;6279999;22;20024;-79
2023/09/27 03:35:31;;;;;;;18.67;13.73;;;;;;;;;;6280727;22;20018;-79
2023/09/27 03:37:57;;;;;;;17.25;14.05;;;;;;;;;;6306332;22;20015;-79
2023/09/27 03:40:24;;;;;;;18.23;14.77;;;;;;;;;;6307660;22;20015;-79
2023/09/27 03:42:50;;;;;;;18.67;15.32;;;;;;;;;;6307499;22;20340;-79
2023/09/27 03:45:16;;;;;;;20.90;15.15;;;;;;;;;;6308058;22;20071;-79
2023/09/27 03:47:44;;;;;;;19.98;13.70;;;;;;;;;;6307919;22;20463;-79
2023/09/27 03:50:12;;;;;;;21.35;14.35;;;;;;;;;;6279164;22;20015;-79
2023/09/27 03:52:40;;;;;;;19.05;14.38;;;;;;;;;;6305257;22;20494;-79
2023/09/27 03:55:06;;;;;;;19.23;14.73;;;;;;;;;;6281206;22;20025;-79
2023/09/27 03:57:32;;;;;;;19.05;14.50;;;;;;;;;;6313913;22;20015;-79
2023/09/27 03:59:58;;;;;;;19.42;14.80;;;;;;;;;;6285318;22;20090;-79
2023/09/27 04:02:24;;;;;;;19.23;14.23;;;;;;;;;;6313096;22;20015;-80
2023/09/27 04:04:50;;;;;;;20.45;14.23;;;;;;;;;;6313186;22;20011;-79
2023/09/27 04:07:18;;;;;;;21.20;14.70;;;;;;;;;;6312754;22;20042;-79
2023/09/27 04:09:45;;;;;;;19.08;14.68;;;;;;;;;;6314478;22;20046;-79
2023/09/27 04:12:11;;;;;;;20.27;15.25;;;;;;;;;;6315039;22;20015;-80
2023/09/27 04:14:38;;;;;;;18.52;14.20;;;;;;;;;;6317463;22;20082;-80
2023/09/27 04:17:04;;;;;;;20.95;15.27;;;;;;;;;;6318465;22;20022;-80
2023/09/27 04:19:31;;;;;;;19.05;15.10;;;;;;;;;;6317612;22;20019;-80
2023/09/27 04:21:57;;;;;;;19.85;15.23;;;;;;;;;;6317027;22;20026;-80
2023/09/27 04:24:23;;;;;;;20.80;16.13;;;;;;;;;;6317760;22;20060;-80
2023/09/27 04:26:49;;;;;;;20.85;16.20;;;;;;;;;;6291028;22;20037;-80
2023/09/27 04:29:16;;;;;;;19.52;14.82;;;;;;;;;;6291552;22;20025;-80
2023/09/27 04:31:42;;;;;;;20.58;15.13;;;;;;;;;;6323873;22;20015;-80
2023/09/27 04:34:08;;;;;;;21.45;15.13;;;;;;;;;;6297233;22;20042;-80
2023/09/27 04:36:34;;;;;;;21.30;15.95;;;;;;;;;;6325397;22;20011;-80
2023/09/27 04:39:00;;;;;;;21.23;16.00;;;;;;;;;;6324195;22;20015;-80
2023/09/27 04:41:26;;;;;;;19.33;15.65;;;;;;;;;;6321748;22;20011;-80
2023/09/27 04:43:53;;;;;;;19.00;15.05;;;;;;;;;;6319618;22;20004;-80
2023/09/27 04:46:19;;;;;;;21.38;16.02;;;;;;;;;;6320291;22;20022;-80
2023/09/27 04:48:45;;;;;;;20.85;15.13;;;;;;;;;;6293726;22;20054;-80
2023/09/27 04:51:11;;;;;;;20.60;15.38;;;;;;;;;;6292860;22;20011;-80
2023/09/27 04:53:38;;;;;;;18.95;14.07;;;;;;;;;;6320918;22;20014;-80
2023/09/27 04:56:07;;;;;;;21.17;15.90;;;;;;;;;;6318949;22;20011;-80
2023/09/27 04:58:33;;;;;;;20.88;15.60;;;;;;;;;;6290972;22;20023;-80
2023/09/27 05:01:00;;;;;;;19.80;14.70;;;;;;;;;;6317154;22;20124;-79
2023/09/27 05:03:26;;;;;;;20.67;14.73;;;;;;;;;;6317263;22;20011;-81
2023/09/27 05:05:52;;;;;;;21.23;16.48;;;;;;;;;;6318440;22;20030;-81
2023/09/27 05:08:18;;;;;;;22.42;15.23;;;;;;;;;;6318669;22;20078;-81
2023/09/27 05:10:44;;;;;;;18.08;15.07;;;;;;;;;;6287519;22;20015;-86
2023/09/27 05:13:10;;;;;;;19.45;15.13;;;;;;;;;;6262438;22;20026;-82
2023/09/27 05:15:37;;;;;;;18.75;14.95;;;;;;;;;;6239591;22;20086;-82
2023/09/27 05:18:03;;;;;;;21.92;15.55;;;;;;;;;;6288356;22;20015;-81
2023/09/27 05:20:29;;;;;;;19.42;15.05;;;;;;;;;;6289379;22;20033;-81
2023/09/27 05:22:55;;;;;;;20.48;15.07;;;;;;;;;;6290392;22;20097;-81
2023/09/27 05:25:21;;;;;;;18.98;13.93;;;;;;;;;;6318446;22;20067;-81
2023/09/27 05:27:47;;;;;;;18.83;15.40;;;;;;;;;;6316801;22;20333;-80
2023/09/27 05:30:15;;;;;;;19.80;15.55;;;;;;;;;;6316699;22;20116;-80
2023/09/27 05:32:42;;;;;;;21.15;15.63;;;;;;;;;;6263057;22;20030;-81
2023/09/27 05:35:09;;;;;;;19.98;15.18;;;;;;;;;;6287295;22;20026;-81
2023/09/27 05:37:35;;;;;;;21.52;15.00;;;;;;;;;;6288216;22;20072;-80
2023/09/27 05:40:04;;;;;;;19.67;15.30;;;;;;;;;;6316412;22;20078;-81
2023/09/27 05:42:33;;;;;;;20.67;15.65;;;;;;;;;;6316003;22;20026;-81
2023/09/27 05:44:59;;;;;;;19.40;14.43;;;;;;;;;;6317368;22;20038;-81
2023/09/27 05:47:25;;;;;;;16.52;13.77;;;;;;;;;;6318858;22;20026;-80
2023/09/27 05:49:51;;;;;;;19.15;14.90;;;;;;;;;;6291278;22;20033;-81
2023/09/27 05:52:19;;;;;;;20.05;15.35;;;;;;;;;;6318251;22;20015;-80
2023/09/27 05:54:46;;;;;;;18.23;13.80;;;;;;;;;;6312012;22;20015;-78
2023/09/27 05:57:12;;;;;;;19.17;13.90;;;;;;;;;;6306634;22;20022;-81
2023/09/27 05:59:40;;;;;;;17.58;13.52;;;;;;;;;;6289262;22;20039;-80
2023/09/27 06:02:16;;;;;;;18.58;14.13;;;;;;;;;;6265860;22;20075;-80
2023/09/27 06:04:42;;;;;;;18.25;14.05;;;;;;;;;;6287793;22;20028;-79
2023/09/27 06:07:08;;;;;;;18.60;14.10;;;;;;;;;;6288436;22;20026;-80
2023/09/27 06:09:34;;;;;;;19.88;14.18;;;;;;;;;;6316831;22;20562;-79
2023/09/27 06:12:00;;;;;;;19.00;15.10;;;;;;;;;;6310146;22;20011;-81
2023/09/27 06:14:26;;;;;;;18.65;14.75;;;;;;;;;;6312579;22;20399;-81
2023/09/27 06:16:52;;;;;;;20.60;15.25;;;;;;;;;;6287341;22;20020;-80
2023/09/27 06:19:18;;;;;;;18.30;14.48;;;;;;;;;;6315069;22;20039;-80
2023/09/27 06:21:44;;;;;;;18.50;14.63;;;;;;;;;;6315913;22;20015;-80
2023/09/27 06:24:10;;;;;;;21.83;14.55;;;;;;;;;;6317628;22;20440;-80
2023/09/27 06:26:36;;;;;;;19.02;14.85;;;;;;;;;;6289508;22;20030;-80
2023/09/27 06:29:02;;;;;;;20.67;15.93;;;;;;;;;;6316300;22;20015;-80
2023/09/27 06:31:29;;;;;;;21.00;14.63;;;;;;;;;;6315073;22;20015;-82
2023/09/27 06:33:55;;;;;;;19.38;13.98;;;;;;;;;;6313614;22;20007;-82
2023/09/27 06:36:21;;;;;;;20.50;15.02;;;;;;;;;;6285141;22;20496;-81
2023/09/27 06:38:48;;;;;;;20.35;14.85;;;;;;;;;;6314330;22;20451;-81
2023/09/27 06:41:15;;;;;;;19.00;15.80;;;;;;;;;;6314837;22;20037;-81
2023/09/27 06:43:41;;;;;;;17.77;14.73;;;;;;;;;;6286752;22;20007;-81
2023/09/27 06:46:11;;;;;;;21.40;14.95;;;;;;;;;;6314145;22;20019;-81
2023/09/27 06:48:37;;;;;;;18.95;14.70;;;;;;;;;;6315086;22;20019;-82
2023/09/27 06:51:05;;;;;;;20.70;16.08;;;;;;;;;;6314861;22;20091;-81
2023/09/27 06:53:32;;;;;;;17.45;13.65;;;;;;;;;;6287976;22;20015;-81
2023/09/27 06:55:58;;;;;;;21.30;15.45;;;;;;;;;;6314352;22;20007;-81
2023/09/27 06:58:25;;;;;;;17.60;13.35;;;;;;;;;;6312148;22;20015;-82
2023/09/27 07:00:54;;;;;;;21.63;16.20;;;;;;;;;;6313461;22;20069;-82
2023/09/27 07:03:24;;;;;;;20.77;14.77;;;;;;;;;;6286007;22;20042;-82
2023/09/27 07:05:51;;;;;;;20.55;14.93;;;;;;;;;;6285732;22;20011;-82
2023/09/27 07:08:17;;;;;;;22.05;16.25;;;;;;;;;;6287288;22;20022;-83
2023/09/27 07:10:44;;;;;;;21.25;16.30;;;;;;;;;;6315042;22;20011;-82
2023/09/27 07:13:10;;;;;;;22.13;16.15;;;;;;;;;;6313490;22;20107;-82
2023/09/27 07:15:37;;;;;;;20.80;15.95;;;;;;;;;;6313005;22;20120;-82
2023/09/27 07:18:03;;;;;;;25.90;16.55;;;;;;;;;;6286788;22;20019;-83
2023/09/27 07:20:34;;;;;;;25.23;17.02;;;;;;;;;;6314773;22;20022;-83
2023/09/27 07:23:03;;;;;;;21.05;16.05;;;;;;;;;;6288011;22;20015;-82
2023/09/27 07:25:32;;;;;;;23.30;17.30;;;;;;;;;;6315886;22;20011;-82
2023/09/27 07:27:59;;;;;;;22.92;17.77;;;;;;;;;;6311782;22;20018;-81
2023/09/27 07:30:25;;;;;;;22.02;15.65;;;;;;;;;;6311477;22;20018;-82
2023/09/27 07:32:51;;;;;;;23.25;17.02;;;;;;;;;;6312733;22;20012;-82
2023/09/27 07:35:19;;;;;;;23.60;17.77;;;;;;;;;;6310727;22;20007;-82
2023/09/27 07:37:45;;;;;;;25.48;16.65;;;;;;;;;;6311693;22;20038;-82
2023/09/27 07:40:12;;;;;;;22.00;16.65;;;;;;;;;;6312037;22;20022;-82
2023/09/27 07:42:39;;;;;;;26.02;17.33;;;;;;;;;;6285050;22;20439;-82
2023/09/27 07:45:13;;;;;;;22.40;16.27;;;;;;;;;;6312319;22;20018;-81
2023/09/27 07:47:39;;;;;;;20.38;17.50;;;;;;;;;;6286448;22;20386;-81
2023/09/27 07:50:05;;;;;;;21.02;16.35;;;;;;;;;;6311098;22;20051;-81
2023/09/27 07:52:31;;;;;;;23.42;16.30;;;;;;;;;;6312835;22;20015;-82
2023/09/27 07:54:58;;;;;;;22.52;16.45;;;;;;;;;;6313027;22;20058;-82
2023/09/27 07:57:24;;;;;;;21.60;16.60;;;;;;;;;;6311759;22;20038;-82
2023/09/27 07:59:52;;;;;;;21.95;15.82;;;;;;;;;;6312753;22;20107;-82
2023/09/27 08:02:18;;;;;;;21.40;15.57;;;;;;;;;;6313155;22;20019;-82
2023/09/27 08:04:44;;;;;;;19.52;14.75;;;;;;;;;;6313676;22;20014;-82
2023/09/27 08:07:11;;;;;;;22.20;16.70;;;;;;;;;;6284642;22;20447;-81
2023/09/27 08:09:38;;;;;;;21.30;15.25;;;;;;;;;;6312130;22;20011;-82
2023/09/27 08:12:05;;;;;;;21.00;16.05;;;;;;;;;;6286318;22;20015;-82
2023/09/27 08:14:32;;;;;;;20.75;15.80;;;;;;;;;;6285825;22;19995;-82
2023/09/27 08:16:58;;;;;;;20.33;14.70;;;;;;;;;;6284931;22;20050;-82
2023/09/27 08:19:24;;;;;;;22.10;15.77;;;;;;;;;;6312432;22;20011;-83
2023/09/27 08:21:50;;;;;;;19.33;15.13;;;;;;;;;;6315435;22;20019;-81
2023/09/27 08:24:19;;;;;;;21.52;16.60;;;;;;;;;;6314289;22;20022;-81
2023/09/27 08:26:46;;;;;;;20.25;16.42;;;;;;;;;;6288227;22;20018;-83
2023/09/27 08:29:13;;;;;;;20.60;15.63;;;;;;;;;;6313084;22;20011;-82
2023/09/27 08:31:39;;;;;;;20.30;16.33;;;;;;;;;;6286417;22;20137;-82
2023/09/27 08:34:05;;;;;;;22.65;16.38;;;;;;;;;;6288186;22;20035;-82
2023/09/27 08:36:31;;;;;;;22.95;16.55;;;;;;;;;;6315278;22;20007;-83
2023/09/27 08:38:57;;;;;;;21.30;15.55;;;;;;;;;;6315124;22;20060;-83
2023/09/27 08:41:25;;;;;;;19.85;15.63;;;;;;;;;;6316987;22;20011;-83
2023/09/27 08:43:52;;;;;;;19.83;15.18;;;;;;;;;;6316085;22;20459;-83
2023/09/27 08:46:20;;;;;;;18.00;14.40;;;;;;;;;;6315900;22;20018;-83
2023/09/27 08:48:48;;;;;;;21.60;16.88;;;;;;;;;;6315937;22;20051;-83
2023/09/27 08:51:14;;;;;;;20.40;14.43;;;;;;;;;;6315088;22;20011;-83
2023/09/27 08:53:42;;;;;;;22.70;15.10;;;;;;;;;;6263718;22;20016;-82
2023/09/27 08:56:12;;;;;;;22.83;15.18;;;;;;;;;;6315422;22;20121;-82
2023/09/27 08:58:38;;;;;;;23.13;14.80;;;;;;;;;;6317239;22;20019;-82
2023/09/27 09:01:09;;;;;;;26.40;19.80;;;;;;;;;;6283328;22;20042;-83
2023/09/27 09:03:35;;;;;;;;;;;;;;;;;;6283942;22;20076;-83
2023/09/27 09:06:04;;;;;;;21.75;15.55;;;;;;;;;;6308050;22;19964;-83
2023/09/27 09:08:31;;;;;;;22.40;15.60;;;;;;;;;;6311872;22;20012;-83
2023/09/27 09:10:59;;;;;;;21.00;15.40;;;;;;;;;;6282232;22;20041;-83
2023/09/27 09:13:25;;;;;;;22.20;16.48;;;;;;;;;;6283831;22;20347;-83
2023/09/27 09:15:52;;;;;;;22.52;15.88;;;;;;;;;;6284927;22;20133;-83
2023/09/27 09:18:29;;;;;;;21.77;15.30;;;;;;;;;;6285075;22;20019;-83
2023/09/27 09:20:59;;;;;;;23.42;16.17;;;;;;;;;;6312636;22;20067;-81
2023/09/27 09:23:30;;;;;;;19.80;14.30;;;;;;;;;;6314748;22;20035;-81
2023/09/27 09:25:57;;;;;;;20.00;14.10;;;;;;;;;;6284226;22;20048;-82
2023/09/27 09:28:23;;;;;;;20.92;16.00;;;;;;;;;;6315031;22;20022;-82
2023/09/27 09:30:49;;;;;;;20.98;14.93;;;;;;;;;;6313713;22;20016;-83
2023/09/27 09:33:22;;;;;;;19.35;13.90;;;;;;;;;;6307621;22;20035;-82
2023/09/27 09:35:50;;;;;;;17.38;13.35;;;;;;;;;;6282360;22;20062;-83
2023/09/27 09:38:30;;;;;;;18.15;12.95;;;;;;;;;;6278435;22;20027;-81
2023/09/27 09:41:00;;;;;;;19.10;15.20;;;;;;;;;;6281762;22;20328;-82
2023/09/27 09:43:31;;;;;;;17.33;13.35;;;;;;;;;;6284202;22;20011;-82
2023/09/27 09:45:57;;;;;;;;;;;;;;;;;;6260076;22;20015;-83
2023/09/27 09:48:23;;;;;;;18.38;13.50;;;;;;;;;;6312214;22;19921;-82
2023/09/27 09:50:50;;;;;;;15.35;11.25;;;;;;;;;;6311146;22;20007;-82
2023/09/27 09:53:17;;;;;;;16.10;12.68;;;;;;;;;;6310561;22;20086;-82
2023/09/27 09:55:49;;;;;;;18.73;12.13;;;;;;;;;;6314937;22;20440;-83
2023/09/27 09:58:25;;;;;;;15.70;12.32;;;;;;;;;;6314924;22;20015;-82
2023/09/27 10:00:54;;;;;;;17.25;12.20;;;;;;;;;;6313595;22;20019;-82
2023/09/27 10:03:25;;;;;;;16.02;12.10;;;;;;;;;;6314163;22;20015;-82
2023/09/27 10:05:53;;;;;;;22.30;13.15;;;;;;;;;;6313852;22;20015;-82
2023/09/27 10:08:19;;;;;;;18.58;13.00;;;;;;;;;;6312220;22;20427;-82
2023/09/27 10:10:46;;;;;;;15.73;12.90;;;;;;;;;;6317523;22;20309;-82
2023/09/27 10:13:13;;;;;;;16.52;10.25;;;;;;;;;;6318296;22;20007;-82
2023/09/27 10:15:42;;;;;;;16.60;11.60;;;;;;;;;;6290421;22;20131;-82
2023/09/27 10:18:23;;;;;;;17.95;11.30;;;;;;;;;;6288572;22;20045;-82
2023/09/27 10:21:02;;;;;;;17.58;11.52;;;;;;;;;;6317612;22;20087;-83
2023/09/27 10:23:35;;;;;;;16.20;11.65;;;;;;;;;;6258107;22;20039;-83
2023/09/27 10:26:20;;;;;;;18.40;11.40;;;;;;;;;;6285609;22;20015;-83
2023/09/27 10:29:07;;;;;;;15.65;11.55;;;;;;;;;;6283565;22;20019;-82
2023/09/27 10:31:38;;;;;;;14.05;10.73;;;;;;;;;;6312914;22;20569;-81
2023/09/27 10:34:04;;;;;;;;;;;;;;;;;;6313363;22;20054;-82
2023/09/27 10:36:31;;;;;;;16.08;11.38;;;;;;;;;;6315780;22;19911;-81
2023/09/27 10:38:57;;;;;;;16.17;11.27;;;;;;;;;;6286147;22;20011;-82
2023/09/27 10:41:32;;;;;;;15.75;11.43;;;;;;;;;;6309513;22;20015;-80
2023/09/27 10:44:02;;;;;;;15.38;10.82;;;;;;;;;;6307269;22;20012;-79
2023/09/27 10:46:40;;;;;;;16.10;10.55;;;;;;;;;;6307243;22;20041;-79
2023/09/27 10:49:06;;;;;;;14.98;9.77;;;;;;;;;;6305097;22;20096;-78
2023/09/27 10:51:32;;;;;;;15.40;10.80;;;;;;;;;;6304210;22;20018;-78
2023/09/27 10:53:58;;;;;;;14.80;11.88;;;;;;;;;;6304875;22;20431;-78
2023/09/27 10:56:24;;;;;;;16.42;11.32;;;;;;;;;;6277761;22;20016;-77
2023/09/27 10:58:50;;;;;;;13.85;10.35;;;;;;;;;;6305763;22;20034;-78
2023/09/27 11:01:19;;;;;;;15.38;11.18;;;;;;;;;;6304392;22;20467;-78
2023/09/27 11:03:45;;;;;;;15.75;11.20;;;;;;;;;;6305462;22;20022;-78
2023/09/27 11:06:12;;;;;;;13.18;11.05;;;;;;;;;;6303567;22;20022;-78
2023/09/27 11:08:40;;;;;;;12.07;10.38;;;;;;;;;;6305072;22;20011;-78
2023/09/27 11:11:10;;;;;;;13.70;11.13;;;;;;;;;;6306375;22;20332;-78
2023/09/27 11:13:41;;;;;;;15.18;10.57;;;;;;;;;;6307086;22;20011;-78
2023/09/27 11:16:08;;;;;;;13.10;10.18;;;;;;;;;;6304634;22;20050;-78
2023/09/27 11:18:35;;;;;;;14.68;10.10;;;;;;;;;;6305091;22;20011;-78
2023/09/27 11:21:10;;;;;;;12.25;9.15;;;;;;;;;;6277177;22;20026;-78
2023/09/27 11:23:57;;;;;;;12.13;8.95;;;;;;;;;;6306181;22;20339;-79
2023/09/27 11:26:24;;;;;;;11.00;8.35;;;;;;;;;;6308423;22;20098;-80
2023/09/27 11:28:57;;;;;;;12.05;9.77;;;;;;;;;;6310416;22;20015;-81
2023/09/27 11:31:26;;;;;;;9.88;8.65;;;;;;;;;;6284087;22;20448;-81
2023/09/27 11:33:52;;;;;;;11.27;8.10;;;;;;;;;;6311886;22;20022;-81
2023/09/27 11:36:18;;;;;;;11.40;8.63;;;;;;;;;;6283947;22;20015;-81
2023/09/27 11:38:48;;;;;;;10.48;7.85;;;;;;;;;;6312187;22;20081;-82
2023/09/27 11:41:16;;;;;;;10.95;8.18;;;;;;;;;;6283827;22;20015;-81
2023/09/27 11:43:42;;;;;;;11.65;8.38;;;;;;;;;;6312188;22;20432;-80
2023/09/27 11:46:08;;;;;;;8.88;7.38;;;;;;;;;;6282588;22;20011;-81
2023/09/27 11:48:34;;;;;;;8.35;7.22;;;;;;;;;;6257150;22;20023;-81
2023/09/27 11:51:01;;;;;;;8.38;7.47;;;;;;;;;;6310916;22;20392;-81
2023/09/27 11:53:27;;;;;;;10.20;7.00;;;;;;;;;;6312088;22;20011;-81
2023/09/27 11:55:55;;;;;;;9.77;7.80;;;;;;;;;;6313323;22;20038;-81
2023/09/27 11:58:21;;;;;;;9.00;6.68;;;;;;;;;;6311622;22;20040;-81
2023/09/27 12:00:47;;;;;;;7.70;6.65;;;;;;;;;;6283931;22;20026;-82
2023/09/27 12:03:13;;;;;;;10.20;7.15;;;;;;;;;;6311445;22;20080;-80
2023/09/27 12:05:39;;;;;;;12.32;7.22;;;;;;;;;;6312845;22;20451;-82
2023/09/27 12:08:06;;;;;;;8.57;6.90;;;;;;;;;;6310909;22;20015;-81
2023/09/27 12:10:33;;;;;;;10.18;7.35;;;;;;;;;;6311265;22;20011;-81
2023/09/27 12:12:59;;;;;;;9.43;7.18;;;;;;;;;;6312052;22;20013;-81
2023/09/27 12:15:25;;;;;;;7.97;5.97;;;;;;;;;;6312079;22;20007;-82
2023/09/27 12:17:52;;;;;;;8.57;7.28;;;;;;;;;;6311961;22;20022;-81
2023/09/27 12:20:18;;;;;;;8.90;7.18;;;;;;;;;;6283468;22;20026;-82
2023/09/27 12:22:44;;;;;;;8.18;6.63;;;;;;;;;;6312775;22;20594;-81
2023/09/27 12:25:12;;;;;;;9.25;7.30;;;;;;;;;;6311586;22;20462;-81
2023/09/27 12:27:38;;;;;;;10.57;6.85;;;;;;;;;;6311493;22;20015;-81
2023/09/27 12:30:05;;;;;;;9.50;7.13;;;;;;;;;;6311857;22;20011;-81
2023/09/27 12:32:31;;;;;;;9.40;6.93;;;;;;;;;;6285192;22;20007;-81
2023/09/27 12:34:57;;;;;;;9.32;6.72;;;;;;;;;;6311085;22;20015;-81
2023/09/27 12:37:23;;;;;;;8.63;6.70;;;;;;;;;;6311895;22;20038;-81
2023/09/27 12:39:49;;;;;;;9.38;7.35;;;;;;;;;;6311935;22;20547;-81
2023/09/27 12:42:15;;;;;;;8.90;6.50;;;;;;;;;;6310699;22;20026;-81
2023/09/27 12:44:41;;;;;;;8.25;6.38;;;;;;;;;;6283968;22;20451;-81
2023/09/27 12:47:07;;;;;;;9.27;6.68;;;;;;;;;;6308909;22;20026;-81
2023/09/27 12:49:33;;;;;;;8.00;5.95;;;;;;;;;;6284812;22;20015;-81
2023/09/27 12:51:59;;;;;;;7.63;5.72;;;;;;;;;;6311989;22;20018;-81
2023/09/27 12:54:26;;;;;;;8.25;5.57;;;;;;;;;;6284324;22;20007;-81
2023/09/27 12:56:52;;;;;;;6.38;5.60;;;;;;;;;;6311671;22;20019;-81
2023/09/27 12:59:18;;;;;;;8.43;6.45;;;;;;;;;;6258185;22;20026;-81
2023/09/27 13:01:45;;;;;;;7.20;5.10;;;;;;;;;;6311430;22;20015;-81
2023/09/27 13:04:11;;;;;;;7.18;5.80;;;;;;;;;;6312094;22;20061;-81
2023/09/27 13:06:37;;;;;;;6.07;4.88;;;;;;;;;;6311743;22;20011;-81
2023/09/27 13:09:03;;;;;;;6.72;4.57;;;;;;;;;;6312287;22;20061;-81
2023/09/27 13:11:29;;;;;;;7.63;5.00;;;;;;;;;;6311433;22;20018;-82
2023/09/27 13:13:55;;;;;;;4.95;4.35;;;;;;;;;;6284871;22;20015;-81
2023/09/27 13:16:21;;;;;;;5.30;4.18;;;;;;;;;;6281235;22;20018;-85
2023/09/27 13:18:47;;;;;;;6.28;4.28;;;;;;;;;;6277652;22;20023;-82
2023/09/27 13:21:13;;;;;;;5.72;4.28;;;;;;;;;;6310331;22;20016;-82
2023/09/27 13:23:41;;;;;;;4.82;3.83;;;;;;;;;;6313496;22;20015;-81
2023/09/27 13:26:07;;;;;;;6.03;4.20;;;;;;;;;;6285970;22;20431;-81
2023/09/27 13:28:33;;;;;;;4.93;3.65;;;;;;;;;;6285910;22;20030;-80
2023/09/27 13:30:59;;;;;;;5.82;3.38;;;;;;;;;;6313471;22;20016;-80
2023/09/27 13:33:25;;;;;;;4.13;3.63;;;;;;;;;;6312421;22;20436;-81
2023/09/27 13:35:51;;;;;;;5.45;3.90;;;;;;;;;;6312981;22;20785;-80
2023/09/27 13:38:17;;;;;;;5.30;4.32;;;;;;;;;;6314842;22;20019;-82
2023/09/27 13:40:47;;;;;;;5.13;4.15;;;;;;;;;;6318749;22;20082;-81
2023/09/27 13:43:14;;;;;;;6.43;4.85;;;;;;;;;;6320783;22;20375;-82
2023/09/27 13:45:41;;;;;;;6.30;4.97;;;;;;;;;;6320345;22;20015;-79
2023/09/27 13:48:07;;;;;;;4.75;4.15;;;;;;;;;;6314831;22;20019;-79
2023/09/27 13:50:35;;;;;;;5.15;4.38;;;;;;;;;;6312668;22;20023;-79
2023/09/27 13:53:01;;;;;;;5.20;3.92;;;;;;;;;;6309644;22;20015;-79
2023/09/27 13:55:28;;;;;;;4.43;3.05;;;;;;;;;;6311692;22;20019;-79
2023/09/27 13:57:56;;;;;;;3.15;2.85;;;;;;;;;;6312520;22;20060;-80
2023/09/27 14:00:22;;;;;;;2.58;2.30;;;;;;;;;;6284385;22;20455;-82
2023/09/27 14:02:48;;;;;;;3.03;2.40;;;;;;;;;;6285668;22;20049;-81
2023/09/27 14:05:14;;;;;;;3.75;2.40;;;;;;;;;;6313346;22;20015;-82
2023/09/27 14:07:42;;;;;;;4.20;2.33;;;;;;;;;;6308542;22;20015;-86
2023/09/27 14:10:09;;;;;;;4.20;2.50;;;;;;;;;;6280010;22;20011;-85
2023/09/27 14:12:35;;;;;;;4.60;2.30;;;;;;;;;;6280311;22;20340;-86
2023/09/27 14:15:01;;;;;;;3.25;2.38;;;;;;;;;;6308445;22;20011;-85
2023/09/27 14:17:27;;;;;;;5.03;3.25;;;;;;;;;;6306008;22;20565;-84
2023/09/27 14:19:55;;;;;;;4.72;3.35;;;;;;;;;;6278220;22;20043;-86
2023/09/27 14:22:21;;;;;;;5.38;3.10;;;;;;;;;;6306199;22;20080;-86